Time;durP1;ratioP1;P1;durP2;ratioP2;P2;SDS_P1;SDS_P2;PMS_P1;PMS_P2;Temp;Humidity;BMP_temperature;BMP_pressure;BME280_temperature;BME280_humidity;BME280_pressure;Samples;Min_cycle;Max_cycle;Signal;HPM_P1;HPM_P2
2023/01/23 00:00:40;;;;;;;17.33;7.20;;;4.80;99.90;;;;;;5074111;28;20530;-72
2023/01/23 00:03:06;;;;;;;19.33;7.22;;;4.80;99.90;;;;;;5075867;28;20052;-70
2023/01/23 00:05:31;;;;;;;15.50;6.40;;;4.80;99.90;;;;;;5079735;28;20055;-70
2023/01/23 00:07:57;;;;;;;18.92;6.75;;;4.80;99.90;;;;;;5073442;28;20041;-69
2023/01/23 00:10:22;;;;;;;14.23;6.63;;;4.70;99.90;;;;;;5072440;28;20094;-70
2023/01/23 00:12:48;;;;;;;16.00;7.00;;;4.70;99.90;;;;;;5073758;28;20036;-69
2023/01/23 00:15:15;;;;;;;16.98;6.53;;;4.70;99.90;;;;;;5073558;28;20079;-70
2023/01/23 00:17:41;;;;;;;16.92;7.43;;;4.70;99.90;;;;;;5073884;28;20131;-70
2023/01/23 00:20:08;;;;;;;16.15;6.82;;;4.60;99.90;;;;;;5073645;28;20111;-70
2023/01/23 00:22:34;;;;;;;23.63;7.75;;;4.60;99.90;;;;;;5070229;28;20048;-71
2023/01/23 00:25:00;;;;;;;21.73;7.85;;;4.60;99.90;;;;;;5061848;28;20025;-71
2023/01/23 00:27:26;;;;;;;19.83;6.93;;;4.60;99.90;;;;;;5063437;28;20028;-70
2023/01/23 00:29:52;;;;;;;19.05;7.45;;;4.60;99.90;;;;;;5060385;28;20469;-72
2023/01/23 00:32:17;;;;;;;18.98;7.65;;;4.60;99.90;;;;;;5061769;28;20021;-69
2023/01/23 00:34:44;;;;;;;21.08;7.80;;;4.60;99.90;;;;;;5062682;28;20509;-70
2023/01/23 00:37:10;;;;;;;20.92;7.15;;;4.60;99.90;;;;;;5043421;28;20032;-69
2023/01/23 00:39:35;;;;;;;18.55;7.30;;;4.60;99.90;;;;;;5044932;28;20476;-70
2023/01/23 00:42:04;;;;;;;19.33;7.47;;;4.60;99.90;;;;;;5061302;28;20033;-70
2023/01/23 00:44:30;;;;;;;17.00;7.43;;;4.60;99.90;;;;;;5062987;28;20028;-70
2023/01/23 00:46:56;;;;;;;21.10;7.60;;;4.60;99.90;;;;;;5063212;28;20158;-70
2023/01/23 00:49:22;;;;;;;20.38;7.65;;;4.60;99.90;;;;;;5062017;28;20052;-69
2023/01/23 00:51:49;;;;;;;21.55;7.80;;;4.60;99.90;;;;;;5062002;28;20020;-69
2023/01/23 00:54:15;;;;;;;23.23;9.18;;;4.60;99.90;;;;;;5062954;28;20020;-69
2023/01/23 00:56:40;;;;;;;35.70;8.90;;;4.60;99.90;;;;;;5061886;28;20028;-69
2023/01/23 00:59:08;;;;;;;20.35;7.57;;;4.60;99.90;;;;;;5060151;28;20020;-70
2023/01/23 01:01:34;;;;;;;19.58;8.32;;;4.60;99.90;;;;;;5061756;28;20021;-71
2023/01/23 01:03:59;;;;;;;21.23;8.55;;;4.60;99.90;;;;;;5063857;28;20048;-70
2023/01/23 01:06:26;;;;;;;20.10;7.88;;;4.60;99.90;;;;;;5061545;28;20472;-70
2023/01/23 01:08:51;;;;;;;22.13;7.80;;;4.60;99.90;;;;;;5062799;28;20456;-69
2023/01/23 01:11:17;;;;;;;21.88;8.30;;;4.60;99.90;;;;;;5060318;28;20055;-70
2023/01/23 01:13:43;;;;;;;24.38;7.63;;;4.60;99.90;;;;;;5062948;28;20504;-70
2023/01/23 01:16:10;;;;;;;24.17;7.82;;;4.60;99.90;;;;;;5060083;28;20535;-70
2023/01/23 01:18:36;;;;;;;19.80;8.52;;;4.50;99.90;;;;;;5064554;28;20484;-70
2023/01/23 01:21:07;;;;;;;22.63;8.68;;;4.60;99.90;;;;;;5044108;28;20028;-70
2023/01/23 01:23:33;;;;;;;20.02;7.28;;;4.60;99.90;;;;;;5064052;28;20522;-69
2023/01/23 01:25:59;;;;;;;19.90;7.75;;;4.60;99.90;;;;;;5060882;28;20025;-71
2023/01/23 01:28:29;;;;;;;22.10;7.82;;;4.60;99.90;;;;;;5063506;28;20064;-70
2023/01/23 01:31:11;;;;;;;19.95;8.10;;;4.60;99.90;;;;;;5048117;28;20040;-71
2023/01/23 01:33:38;;;;;;;22.25;8.52;;;4.50;99.90;;;;;;5058344;28;20040;-72
2023/01/23 01:36:09;;;;;;;22.55;8.23;;;4.60;99.90;;;;;;5061522;28;20052;-71
2023/01/23 01:38:35;;;;;;;28.60;9.07;;;4.50;99.90;;;;;;5061596;28;20107;-70
2023/01/23 01:41:01;;;;;;;22.85;8.77;;;4.60;99.90;;;;;;5058079;28;20107;-70
2023/01/23 01:43:27;;;;;;;20.40;8.25;;;4.60;99.90;;;;;;5067328;28;20021;-73
2023/01/23 01:46:10;;;;;;;21.92;8.57;;;4.60;99.90;;;;;;5059568;28;20025;-69
2023/01/23 01:49:15;;;;;;;19.67;7.80;;;4.60;99.90;;;;;;5064389;28;20025;-69
2023/01/23 01:51:41;;;;;;;19.65;7.82;;;4.60;99.90;;;;;;5063791;28;20039;-69
2023/01/23 01:54:16;;;;;;;21.80;8.95;;;4.60;99.90;;;;;;5065906;28;20392;-69
2023/01/23 01:57:12;;;;;;;22.55;9.75;;;4.60;99.90;;;;;;5065432;28;20090;-69
2023/01/23 01:59:47;;;;;;;23.55;8.73;;;4.60;99.90;;;;;;5050418;28;20047;-69
2023/01/23 02:02:17;;;;;;;24.77;8.25;;;4.60;99.90;;;;;;5072361;28;20020;-69
2023/01/23 02:04:48;;;;;;;17.92;8.07;;;4.60;99.90;;;;;;5071293;28;20031;-69
2023/01/23 02:07:33;;;;;;;21.98;8.35;;;4.60;99.90;;;;;;5079243;28;20067;-69
2023/01/23 02:10:01;;;;;;;23.67;8.57;;;4.60;99.90;;;;;;5074664;28;20037;-70
2023/01/23 02:12:27;;;;;;;23.63;9.18;;;4.60;99.90;;;;;;5072208;28;20047;-68
2023/01/23 02:14:53;;;;;;;28.15;10.15;;;4.60;99.90;;;;;;5071253;28;20435;-69
2023/01/23 02:17:19;;;;;;;21.42;9.13;;;4.60;99.90;;;;;;5071532;28;20136;-69
2023/01/23 02:19:50;;;;;;;24.15;8.73;;;4.70;99.90;;;;;;5054045;28;20024;-69
2023/01/23 02:22:54;;;;;;;21.85;8.95;;;4.70;99.90;;;;;;5056959;28;20032;-69
2023/01/23 02:25:42;;;;;;;24.45;8.88;;;4.60;99.90;;;;;;5071467;28;20537;-68
2023/01/23 02:28:09;;;;;;;20.90;9.63;;;4.60;99.90;;;;;;5054276;28;20035;-70
2023/01/23 02:30:39;;;;;;;19.10;8.93;;;4.60;99.90;;;;;;5056173;28;20135;-69
2023/01/23 02:33:21;;;;;;;23.52;9.40;;;4.60;99.90;;;;;;5038153;28;20047;-69
2023/01/23 02:35:47;;;;;;;20.30;8.75;;;4.60;99.90;;;;;;5072952;28;20035;-69
2023/01/23 02:38:13;;;;;;;21.52;8.00;;;4.60;99.90;;;;;;5075772;28;20032;-69
2023/01/23 02:40:41;;;;;;;23.17;8.43;;;4.60;99.90;;;;;;5069066;28;20025;-70
2023/01/23 02:43:12;;;;;;;24.45;10.20;;;4.60;99.90;;;;;;5056231;28;20033;-69
2023/01/23 02:45:37;;;;;;;22.20;8.32;;;4.60;99.90;;;;;;5055786;28;20029;-69
2023/01/23 02:48:04;;;;;;;22.48;8.82;;;4.60;99.90;;;;;;5054851;28;20355;-69
2023/01/23 02:50:30;;;;;;;21.70;8.30;;;4.70;99.90;;;;;;5067791;28;20033;-70
2023/01/23 02:52:57;;;;;;;24.17;9.27;;;4.70;99.90;;;;;;5053644;28;20423;-69
2023/01/23 02:55:25;;;;;;;21.35;8.40;;;4.70;99.90;;;;;;5037500;28;20032;-68
2023/01/23 02:57:51;;;;;;;25.95;9.82;;;4.70;99.90;;;;;;5055819;28;20798;-69
2023/01/23 03:00:21;;;;;;;22.60;9.65;;;4.70;99.90;;;;;;5069533;28;20029;-71
2023/01/23 03:02:48;;;;;;;20.88;8.20;;;4.70;99.90;;;;;;5075541;28;20025;-71
2023/01/23 03:05:14;;;;;;;24.70;10.10;;;4.70;99.90;;;;;;5060449;28;20074;-69
2023/01/23 03:07:41;;;;;;;22.33;9.25;;;4.70;99.90;;;;;;5055719;28;20025;-71
2023/01/23 03:10:08;;;;;;;23.48;8.88;;;4.70;99.90;;;;;;5070796;28;20043;-70
2023/01/23 03:12:34;;;;;;;23.85;9.77;;;4.70;99.90;;;;;;5075663;28;20099;-68
2023/01/23 03:14:59;;;;;;;22.38;9.18;;;4.70;99.90;;;;;;5075500;28;20089;-70
2023/01/23 03:17:26;;;;;;;23.13;9.18;;;4.70;99.90;;;;;;5074998;28;20400;-69
2023/01/23 03:19:51;;;;;;;19.00;7.68;;;4.70;99.90;;;;;;5074782;28;20491;-71
2023/01/23 03:22:17;;;;;;;25.10;9.13;;;4.70;99.90;;;;;;5075047;28;20114;-71
2023/01/23 03:24:42;;;;;;;23.20;8.68;;;4.70;99.90;;;;;;5070552;28;20372;-71
2023/01/23 03:27:08;;;;;;;22.60;9.65;;;4.70;99.90;;;;;;5070803;28;20499;-70
2023/01/23 03:32:18;;;;;;;25.08;9.32;;;4.70;99.90;;;;;;5055085;28;20040;-70
2023/01/23 03:34:43;;;;;;;27.10;10.60;;;4.70;99.90;;;;;;5054895;28;20025;-68
2023/01/23 03:37:11;;;;;;;24.13;8.90;;;4.70;99.90;;;;;;5036921;28;20028;-70
2023/01/23 03:42:21;;;;;;;25.63;10.13;;;4.70;99.90;;;;;;5059597;28;20479;-70
2023/01/23 03:44:47;;;;;;;20.98;9.25;;;4.70;99.90;;;;;;5074610;28;20085;-69
2023/01/23 03:47:13;;;;;;;21.27;8.80;;;4.70;99.90;;;;;;5070808;28;20099;-70
2023/01/23 03:49:38;;;;;;;26.30;9.95;;;4.70;99.90;;;;;;5074615;28;20040;-70
2023/01/23 03:52:05;;;;;;;20.55;8.43;;;4.70;99.90;;;;;;5074793;28;20063;-70
2023/01/23 03:54:30;;;;;;;25.23;9.73;;;4.70;99.90;;;;;;5074619;28;20024;-71
2023/01/23 03:56:56;;;;;;;22.25;9.20;;;4.70;99.90;;;;;;5074258;28;20036;-68
2023/01/23 03:59:22;;;;;;;20.55;9.45;;;4.70;99.90;;;;;;5073657;28;20040;-69
2023/01/23 04:01:47;;;;;;;22.80;9.57;;;4.70;99.90;;;;;;5069903;28;20040;-70
2023/01/23 04:04:13;;;;;;;24.13;9.13;;;4.70;99.90;;;;;;5060045;28;20455;-69
2023/01/23 04:06:39;;;;;;;22.50;8.50;;;4.70;99.90;;;;;;5054739;28;20094;-70
2023/01/23 04:09:05;;;;;;;23.23;8.85;;;4.70;99.90;;;;;;5054295;28;20017;-71
2023/01/23 04:11:30;;;;;;;24.55;8.93;;;4.80;99.90;;;;;;5053937;28;20048;-70
2023/01/23 04:13:56;;;;;;;27.33;10.02;;;4.70;99.90;;;;;;5054488;28;20037;-70
2023/01/23 04:16:22;;;;;;;23.27;9.93;;;4.70;99.90;;;;;;5058856;28;20039;-71
2023/01/23 04:18:53;;;;;;;22.13;9.50;;;4.80;99.90;;;;;;5074132;28;20049;-70
2023/01/23 04:21:18;;;;;;;26.77;9.18;;;4.80;99.90;;;;;;5070168;28;20372;-70
2023/01/23 04:23:44;;;;;;;27.20;9.68;;;4.80;99.90;;;;;;5073847;28;20032;-69
2023/01/23 04:26:10;;;;;;;25.88;10.40;;;4.80;99.90;;;;;;5074018;28;20032;-71
2023/01/23 04:28:35;;;;;;;22.13;9.18;;;4.80;99.90;;;;;;5074036;28;20039;-71
2023/01/23 04:31:01;;;;;;;27.98;11.07;;;4.80;99.90;;;;;;5073870;28;20037;-70
2023/01/23 04:33:27;;;;;;;23.58;9.35;;;4.80;99.90;;;;;;5073786;28;20068;-70
2023/01/23 04:35:58;;;;;;;24.63;10.18;;;4.80;99.90;;;;;;5073865;28;20036;-69
2023/01/23 04:38:26;;;;;;;31.33;9.60;;;4.80;99.90;;;;;;5069852;28;20024;-70
2023/01/23 04:40:53;;;;;;;22.50;8.75;;;4.80;99.90;;;;;;5073254;28;20068;-68
2023/01/23 04:43:19;;;;;;;22.42;9.65;;;4.80;99.90;;;;;;5073613;28;20032;-70
2023/01/23 04:45:45;;;;;;;23.30;9.35;;;4.80;99.90;;;;;;5073588;28;20051;-69
2023/01/23 04:48:12;;;;;;;21.42;9.68;;;4.80;99.90;;;;;;5073203;28;20033;-70
2023/01/23 04:50:38;;;;;;;39.20;11.43;;;4.80;99.90;;;;;;5073243;28;20040;-70
2023/01/23 04:53:04;;;;;;;27.63;9.88;;;4.70;99.90;;;;;;5073658;28;20115;-70
2023/01/23 04:55:30;;;;;;;26.63;9.40;;;4.80;99.90;;;;;;5071874;28;20395;-70
2023/01/23 04:57:56;;;;;;;22.02;9.48;;;4.80;99.90;;;;;;5070080;28;20020;-70
2023/01/23 05:00:22;;;;;;;21.95;8.95;;;4.80;99.90;;;;;;5073281;28;20021;-71
2023/01/23 05:02:48;;;;;;;21.55;9.20;;;4.80;99.90;;;;;;5073463;28;20032;-69
2023/01/23 05:05:16;;;;;;;26.23;10.52;;;4.80;99.90;;;;;;5073584;28;20082;-71
2023/01/23 05:07:42;;;;;;;24.05;10.45;;;4.80;99.90;;;;;;5073191;28;20031;-71
2023/01/23 05:10:09;;;;;;;26.58;10.55;;;4.80;99.90;;;;;;5073000;28;20123;-69
2023/01/23 05:12:34;;;;;;;23.88;10.45;;;4.80;99.90;;;;;;5071925;28;20020;-71
2023/01/23 05:15:00;;;;;;;26.35;11.35;;;4.80;99.90;;;;;;5058504;28;20037;-69
2023/01/23 05:17:25;;;;;;;23.63;9.52;;;4.80;99.90;;;;;;5061942;28;20048;-70
2023/01/23 05:19:51;;;;;;;25.58;10.90;;;4.80;99.90;;;;;;5073274;28;20033;-70
2023/01/23 05:22:16;;;;;;;24.42;10.73;;;4.80;99.90;;;;;;5073550;28;20039;-72
2023/01/23 05:24:42;;;;;;;29.10;11.20;;;4.80;99.90;;;;;;5072828;28;20112;-70
2023/01/23 05:27:08;;;;;;;24.88;10.13;;;4.80;99.90;;;;;;5072735;28;20095;-71
2023/01/23 05:29:34;;;;;;;28.02;10.65;;;4.80;99.90;;;;;;5072951;28;20115;-68
2023/01/23 05:31:59;;;;;;;25.17;10.13;;;4.80;99.90;;;;;;5068719;28;20458;-70
2023/01/23 05:34:25;;;;;;;24.83;10.32;;;4.80;99.90;;;;;;5061297;28;20397;-71
2023/01/23 05:36:51;;;;;;;21.48;9.68;;;4.80;99.90;;;;;;5052775;28;20016;-71
2023/01/23 05:39:16;;;;;;;23.98;9.80;;;4.80;99.90;;;;;;5052991;28;20380;-71
2023/01/23 05:41:42;;;;;;;29.38;10.00;;;4.80;99.90;;;;;;5060187;28;20375;-69
2023/01/23 05:44:08;;;;;;;26.63;10.35;;;4.80;99.90;;;;;;5072756;28;20150;-72
2023/01/23 05:46:34;;;;;;;23.77;9.95;;;4.80;99.90;;;;;;5073188;28;20026;-71
2023/01/23 05:48:59;;;;;;;24.42;9.90;;;4.80;99.90;;;;;;5072835;28;20362;-71
2023/01/23 05:51:31;;;;;;;25.98;9.90;;;4.80;99.90;;;;;;5072810;28;20511;-72
2023/01/23 05:54:00;;;;;;;26.80;10.32;;;4.80;99.90;;;;;;5072675;28;20020;-71
2023/01/23 05:56:26;;;;;;;21.70;9.50;;;4.80;99.90;;;;;;5072822;28;20028;-69
2023/01/23 05:58:52;;;;;;;27.45;9.63;;;4.80;99.90;;;;;;5072756;28;20038;-71
2023/01/23 06:01:18;;;;;;;23.52;9.80;;;4.80;99.90;;;;;;5072725;28;20028;-70
2023/01/23 06:03:44;;;;;;;26.30;10.40;;;4.80;99.90;;;;;;5072634;28;20055;-71
2023/01/23 06:06:09;;;;;;;23.55;10.27;;;4.70;99.90;;;;;;5072983;28;20029;-71
2023/01/23 06:08:35;;;;;;;26.65;10.20;;;4.70;99.90;;;;;;5056928;28;20033;-68
2023/01/23 06:11:00;;;;;;;26.40;10.98;;;4.70;99.90;;;;;;5092720;28;20047;-70
2023/01/23 06:13:27;;;;;;;27.98;10.82;;;4.70;99.90;;;;;;5082378;28;20025;-70
2023/01/23 06:15:53;;;;;;;27.65;11.00;;;4.70;99.90;;;;;;5075353;28;20366;-69
2023/01/23 06:18:18;;;;;;;27.50;11.18;;;4.70;99.90;;;;;;5072550;28;20060;-69
2023/01/23 06:20:44;;;;;;;31.10;11.50;;;4.70;99.90;;;;;;5072419;28;20095;-70
2023/01/23 06:23:10;;;;;;;31.35;11.65;;;4.70;99.90;;;;;;5072559;28;20024;-69
2023/01/23 06:25:37;;;;;;;27.40;11.63;;;4.70;99.90;;;;;;5067359;28;20157;-70
2023/01/23 06:28:03;;;;;;;26.98;11.43;;;4.70;99.90;;;;;;5053069;28;20072;-71
2023/01/23 06:30:29;;;;;;;27.70;11.07;;;4.70;99.90;;;;;;5052249;28;20098;-69
2023/01/23 06:32:54;;;;;;;27.85;11.38;;;4.70;99.90;;;;;;5061574;28;20024;-69
2023/01/23 06:35:20;;;;;;;28.65;11.23;;;4.70;99.90;;;;;;5072360;28;20098;-68
2023/01/23 06:37:46;;;;;;;27.70;12.20;;;4.70;99.90;;;;;;5072120;28;20029;-71
2023/01/23 06:40:12;;;;;;;24.38;11.77;;;4.80;99.90;;;;;;5054572;28;20526;-70
2023/01/23 06:42:41;;;;;;;28.23;11.63;;;4.80;99.90;;;;;;5073294;28;20099;-70
2023/01/23 06:45:09;;;;;;;25.25;11.05;;;4.80;99.90;;;;;;5073241;28;20056;-71
2023/01/23 06:47:35;;;;;;;25.73;10.90;;;4.80;99.90;;;;;;5072048;28;20078;-71
2023/01/23 06:50:01;;;;;;;24.30;11.25;;;4.90;99.90;;;;;;5072297;28;20036;-72
2023/01/23 06:52:27;;;;;;;28.13;12.13;;;4.90;99.90;;;;;;5071861;28;20071;-69
2023/01/23 06:54:53;;;;;;;26.50;13.10;;;4.90;99.90;;;;;;5072203;28;20025;-71
2023/01/23 06:57:19;;;;;;;24.60;11.73;;;4.90;99.90;;;;;;5064386;28;20079;-69
2023/01/23 06:59:45;;;;;;;30.23;13.45;;;5.00;99.90;;;;;;5052013;28;20037;-71
2023/01/23 07:02:11;;;;;;;29.13;11.35;;;5.00;99.90;;;;;;5061935;28;20036;-71
2023/01/23 07:04:36;;;;;;;27.95;11.57;;;5.00;99.90;;;;;;5074289;28;20028;-71
2023/01/23 07:07:02;;;;;;;21.73;11.50;;;5.00;99.90;;;;;;5075595;28;20036;-72
2023/01/23 07:09:28;;;;;;;29.55;12.70;;;5.00;99.90;;;;;;5075409;28;20078;-70
2023/01/23 07:11:53;;;;;;;25.15;11.25;;;5.00;99.90;;;;;;5086272;28;20044;-69
2023/01/23 07:14:19;;;;;;;27.42;12.15;;;5.00;99.90;;;;;;5085441;28;20039;-71
2023/01/23 07:16:44;;;;;;;27.75;12.15;;;5.00;99.90;;;;;;5068938;28;20032;-69
2023/01/23 07:19:10;;;;;;;27.42;11.70;;;5.00;99.90;;;;;;5075444;28;20076;-70
2023/01/23 07:21:36;;;;;;;26.27;11.50;;;5.00;99.90;;;;;;5074664;28;20025;-70
2023/01/23 07:24:01;;;;;;;30.35;12.02;;;5.00;99.90;;;;;;5075330;28;20028;-70
2023/01/23 07:26:27;;;;;;;26.73;11.43;;;5.00;99.90;;;;;;5057162;28;20472;-70
2023/01/23 07:28:52;;;;;;;26.90;11.77;;;5.00;99.90;;;;;;5075106;28;20052;-68
2023/01/23 07:31:18;;;;;;;31.05;12.85;;;5.00;99.90;;;;;;5075137;28;20115;-70
2023/01/23 07:33:44;;;;;;;27.50;11.90;;;5.00;99.90;;;;;;5074882;28;20115;-71
2023/01/23 07:36:12;;;;;;;26.42;11.75;;;5.10;99.90;;;;;;5075147;28;20090;-71
2023/01/23 07:38:38;;;;;;;24.13;12.55;;;5.10;99.90;;;;;;5056993;28;20434;-71
2023/01/23 07:41:04;;;;;;;25.85;11.55;;;5.10;99.90;;;;;;5074955;28;20033;-69
2023/01/23 07:43:30;;;;;;;32.30;13.10;;;5.10;99.90;;;;;;5074874;28;20044;-70
2023/01/23 07:45:58;;;;;;;29.77;12.77;;;5.10;99.90;;;;;;5074939;28;20037;-71
2023/01/23 07:48:24;;;;;;;28.23;11.95;;;5.10;99.90;;;;;;5074830;28;20111;-70
2023/01/23 07:50:49;;;;;;;31.20;13.38;;;5.10;99.90;;;;;;5064787;28;20128;-70
2023/01/23 07:53:15;;;;;;;30.00;12.77;;;5.10;99.90;;;;;;5054731;28;20025;-71
2023/01/23 07:55:40;;;;;;;26.70;12.23;;;5.10;99.90;;;;;;5054809;28;20021;-71
2023/01/23 07:58:06;;;;;;;30.13;13.32;;;5.20;99.90;;;;;;5037317;28;20021;-69
2023/01/23 08:00:31;;;;;;;26.65;11.65;;;5.20;99.90;;;;;;5054611;28;20032;-69
2023/01/23 08:02:57;;;;;;;34.55;14.05;;;5.20;99.90;;;;;;5053385;28;20110;-68
2023/01/23 08:05:23;;;;;;;31.98;13.77;;;5.20;99.90;;;;;;5052408;28;20124;-71
2023/01/23 08:07:49;;;;;;;29.45;13.30;;;5.20;99.90;;;;;;5052857;28;20032;-69
2023/01/23 08:10:14;;;;;;;30.77;13.68;;;5.20;99.90;;;;;;5052652;28;20435;-69
2023/01/23 08:12:40;;;;;;;34.42;13.10;;;5.30;99.90;;;;;;5052637;28;20454;-69
2023/01/23 08:15:06;;;;;;;28.45;11.90;;;5.30;99.90;;;;;;5063492;28;20058;-70
2023/01/23 08:17:32;;;;;;;31.45;13.70;;;5.30;99.90;;;;;;5068531;28;20063;-70
2023/01/23 08:19:57;;;;;;;28.42;12.88;;;5.30;99.90;;;;;;5073742;28;20044;-68
2023/01/23 08:22:23;;;;;;;28.40;12.85;;;5.30;99.90;;;;;;5074213;28;20028;-68
2023/01/23 08:24:49;;;;;;;31.50;12.75;;;5.30;99.90;;;;;;5074120;28;20025;-70
2023/01/23 08:27:14;;;;;;;29.40;13.15;;;5.30;99.90;;;;;;5054903;28;20035;-71
2023/01/23 08:29:40;;;;;;;28.67;12.63;;;5.40;99.90;;;;;;5081629;28;20071;-68
2023/01/23 08:32:06;;;;;;;35.78;15.07;;;5.40;99.90;;;;;;5073647;28;20060;-70
2023/01/23 08:34:31;;;;;;;32.00;14.63;;;5.40;99.90;;;;;;5073798;28;20032;-71
2023/01/23 08:36:57;;;;;;;35.20;14.48;;;5.40;99.90;;;;;;5073693;28;20503;-71
2023/01/23 08:39:23;;;;;;;33.13;14.13;;;5.40;99.90;;;;;;5073602;28;20025;-69
2023/01/23 08:41:49;;;;;;;32.03;13.20;;;5.40;99.90;;;;;;5073425;28;20032;-71
2023/01/23 08:44:15;;;;;;;29.88;13.90;;;5.50;99.90;;;;;;5071874;28;20021;-71
2023/01/23 08:46:42;;;;;;;25.73;11.75;;;5.50;99.90;;;;;;5072148;28;20028;-69
2023/01/23 08:49:07;;;;;;;31.80;12.77;;;5.50;99.90;;;;;;5073104;28;20020;-70
2023/01/23 08:51:33;;;;;;;29.45;13.20;;;5.60;99.90;;;;;;5073152;28;20094;-71
2023/01/23 08:53:58;;;;;;;28.90;13.27;;;5.60;99.90;;;;;;5073586;28;20043;-71
2023/01/23 08:56:24;;;;;;;30.10;12.27;;;5.60;99.90;;;;;;5053723;28;20475;-69
2023/01/23 08:58:50;;;;;;;29.10;13.48;;;5.60;99.90;;;;;;5073253;28;20024;-71
2023/01/23 09:01:22;;;;;;;27.80;12.68;;;5.60;99.90;;;;;;5073053;28;20039;-69
2023/01/23 09:03:48;;;;;;;30.48;13.93;;;5.60;99.90;;;;;;5073183;28;20028;-72
2023/01/23 09:06:16;;;;;;;28.45;13.57;;;5.60;99.90;;;;;;5072981;28;20028;-70
2023/01/23 09:08:42;;;;;;;31.75;13.80;;;5.60;99.90;;;;;;5073251;28;20103;-70
2023/01/23 09:11:09;;;;;;;31.15;14.43;;;5.60;99.90;;;;;;5071331;28;20166;-71
2023/01/23 09:13:35;;;;;;;29.70;13.65;;;5.60;99.90;;;;;;5072792;28;20464;-69
2023/01/23 09:16:01;;;;;;;29.08;13.63;;;5.70;99.90;;;;;;5071807;28;20028;-70
2023/01/23 09:18:27;;;;;;;29.92;12.90;;;5.70;99.90;;;;;;5070781;28;20048;-70
2023/01/23 09:20:53;;;;;;;27.38;12.98;;;5.70;99.90;;;;;;5068518;28;20070;-70
2023/01/23 09:23:19;;;;;;;29.77;14.20;;;5.60;99.90;;;;;;5069923;28;20478;-70
2023/01/23 09:25:45;;;;;;;35.17;14.82;;;5.60;99.90;;;;;;5070431;28;20032;-70
2023/01/23 09:28:11;;;;;;;33.33;14.20;;;5.70;99.90;;;;;;5068548;28;20016;-70
2023/01/23 09:30:37;;;;;;;31.23;14.68;;;5.70;99.90;;;;;;5067664;28;20116;-71
2023/01/23 09:33:03;;;;;;;33.00;14.43;;;5.80;99.90;;;;;;5064984;28;20108;-71
2023/01/23 09:35:28;;;;;;;28.83;13.63;;;5.80;99.90;;;;;;5067866;28;20021;-69
2023/01/23 09:38:00;;;;;;;31.73;13.27;;;5.80;99.90;;;;;;5064616;28;20047;-72
2023/01/23 09:40:46;;;;;;;29.83;15.05;;;5.80;99.90;;;;;;5064436;28;20029;-71
2023/01/23 09:43:15;;;;;;;29.05;12.35;;;5.90;99.90;;;;;;5041968;28;20036;-72
2023/01/23 09:45:48;;;;;;;29.20;13.32;;;5.90;99.90;;;;;;5067295;28;20032;-69
2023/01/23 09:48:24;;;;;;;29.25;13.68;;;5.90;99.90;;;;;;5060009;28;20032;-69
2023/01/23 09:51:32;;;;;;;29.35;12.98;;;5.90;99.90;;;;;;5065529;28;20080;-69
2023/01/23 09:54:06;;;;;;;27.77;12.70;;;5.90;99.90;;;;;;5057693;28;20044;-70
2023/01/23 09:56:40;;;;;;;30.52;14.90;;;6.00;99.90;;;;;;5068177;28;20786;-72
2023/01/23 09:59:09;;;;;;;32.35;13.85;;;6.00;99.90;;;;;;5061431;28;20456;-71
2023/01/23 10:01:35;;;;;;;31.98;13.65;;;6.00;99.90;;;;;;5037875;28;20036;-70
2023/01/23 10:04:01;;;;;;;29.15;12.88;;;6.10;99.90;;;;;;5066681;28;20032;-69
2023/01/23 10:06:30;;;;;;;28.25;13.48;;;6.20;99.90;;;;;;5062323;28;20460;-68
2023/01/23 10:09:14;;;;;;;29.75;13.70;;;6.20;99.90;;;;;;5058457;28;20373;-69
2023/01/23 10:11:51;;;;;;;27.80;12.32;;;6.30;99.90;;;;;;5068620;28;20112;-72
2023/01/23 10:14:36;;;;;;;33.83;14.73;;;6.40;99.90;;;;;;5056120;28;20111;-70
2023/01/23 10:17:25;;;;;;;29.63;13.32;;;6.50;99.90;;;;;;5060867;28;20031;-70
2023/01/23 10:20:16;;;;;;;31.98;14.25;;;6.50;99.90;;;;;;5057098;28;20024;-69
2023/01/23 10:22:46;;;;;;;28.70;12.50;;;6.60;99.90;;;;;;5060446;28;20033;-70
2023/01/23 10:25:24;;;;;;;30.33;12.90;;;6.60;99.90;;;;;;5050122;28;20426;-72
2023/01/23 10:27:52;;;;;;;27.95;12.20;;;6.70;99.90;;;;;;5056759;28;20028;-72
2023/01/23 10:30:27;;;;;;;32.35;12.63;;;6.70;99.90;;;;;;5065919;28;20033;-69
2023/01/23 10:33:15;;;;;;;29.23;13.32;;;6.70;99.90;;;;;;5065481;28;20047;-72
2023/01/23 10:35:51;;;;;;;27.58;12.35;;;6.70;99.90;;;;;;5055485;28;20055;-70
2023/01/23 10:38:47;;;;;;;29.17;12.90;;;6.80;99.90;;;;;;5063856;28;20461;-72
2023/01/23 10:41:14;;;;;;;29.67;13.07;;;6.80;99.90;;;;;;5072126;28;20060;-71
2023/01/23 10:43:51;;;;;;;30.90;14.30;;;6.90;99.90;;;;;;5059404;28;20078;-69
2023/01/23 10:46:20;;;;;;;36.90;15.88;;;6.90;99.90;;;;;;5067739;28;20028;-71
2023/01/23 10:48:51;;;;;;;28.65;13.93;;;7.00;99.90;;;;;;5059947;28;20021;-71
2023/01/23 10:51:34;;;;;;;26.73;12.25;;;7.10;99.90;;;;;;5072563;28;20029;-70
2023/01/23 10:54:18;;;;;;;27.50;12.30;;;7.20;99.90;;;;;;5065944;28;20033;-70
2023/01/23 10:57:03;;;;;;;28.33;12.80;;;7.30;99.90;;;;;;5071548;28;20460;-69
2023/01/23 10:59:50;;;;;;;28.88;13.05;;;7.30;99.90;;;;;;5075128;28;20047;-71
2023/01/23 11:02:27;;;;;;;26.55;12.30;;;7.20;99.90;;;;;;5073364;28;20020;-71
2023/01/23 11:04:55;;;;;;;26.33;12.20;;;7.30;99.90;;;;;;5073186;28;20028;-72
2023/01/23 11:07:22;;;;;;;24.30;11.38;;;7.30;99.90;;;;;;5074961;28;20044;-68
2023/01/23 11:09:59;;;;;;;23.38;10.90;;;7.30;99.90;;;;;;5059716;28;20100;-69
2023/01/23 11:12:28;;;;;;;26.08;11.30;;;7.40;99.90;;;;;;5068917;28;20041;-70
2023/01/23 11:15:21;;;;;;;27.73;12.85;;;7.30;99.90;;;;;;5074615;28;20040;-72
2023/01/23 11:17:51;;;;;;;25.70;10.40;;;7.40;99.90;;;;;;5056227;28;20641;-70
2023/01/23 11:20:34;;;;;;;22.33;10.73;;;7.40;99.90;;;;;;5043943;28;20043;-72
2023/01/23 11:23:00;;;;;;;24.65;10.55;;;7.40;99.90;;;;;;5054970;28;20041;-71
2023/01/23 11:25:44;;;;;;;25.17;11.20;;;7.40;99.90;;;;;;5038582;28;20525;-70
2023/01/23 11:28:34;;;;;;;20.92;10.32;;;7.50;99.90;;;;;;5047897;28;20091;-70
2023/01/23 11:31:17;;;;;;;24.40;11.07;;;7.60;99.90;;;;;;5036489;28;20175;-69
2023/01/23 11:33:54;;;;;;;20.55;10.20;;;7.60;99.90;;;;;;5044121;28;20063;-70
2023/01/23 11:36:29;;;;;;;24.13;11.23;;;7.70;99.90;;;;;;5055023;28;20035;-69
2023/01/23 11:39:15;;;;;;;21.90;9.90;;;7.70;99.90;;;;;;5050708;28;20159;-71
2023/01/23 11:41:43;;;;;;;26.23;10.65;;;7.80;99.90;;;;;;5038287;28;20473;-72
2023/01/23 11:44:15;;;;;;;25.17;10.73;;;7.90;99.90;;;;;;5048367;28;20033;-70
2023/01/23 11:47:12;;;;;;;18.08;9.27;;;8.00;99.90;;;;;;5046119;28;20041;-69
2023/01/23 11:49:55;;;;;;;20.35;8.98;;;8.10;99.90;;;;;;5051257;28;20063;-71
2023/01/23 11:52:35;;;;;;;20.95;9.73;;;8.20;99.90;;;;;;5034321;28;20025;-71
2023/01/23 11:55:13;;;;;;;21.50;9.57;;;8.20;99.90;;;;;;5048627;28;20376;-71
2023/01/23 11:57:51;;;;;;;22.42;8.77;;;8.20;99.90;;;;;;5051566;28;20030;-72
2023/01/23 12:00:26;;;;;;;18.77;8.40;;;8.20;99.90;;;;;;5043037;28;20028;-71
2023/01/23 12:03:23;;;;;;;19.23;8.65;;;8.20;99.90;;;;;;5041285;28;20100;-72
2023/01/23 12:05:58;;;;;;;18.35;8.05;;;8.20;99.90;;;;;;5039142;28;20032;-71
2023/01/23 12:08:34;;;;;;;18.33;9.00;;;8.20;99.90;;;;;;5045193;28;20032;-72
2023/01/23 12:11:23;;;;;;;22.20;9.45;;;8.30;99.90;;;;;;5044233;28;20087;-72
2023/01/23 12:14:02;;;;;;;21.95;7.75;;;8.40;99.90;;;;;;5050920;28;20036;-69
2023/01/23 12:16:36;;;;;;;15.73;7.10;;;8.50;99.90;;;;;;5047614;28;20025;-69
2023/01/23 12:19:33;;;;;;;7.75;4.35;;;8.90;99.90;;;;;;5057188;28;20041;-72
2023/01/23 12:22:08;;;;;;;12.10;5.63;;;9.70;99.90;;;;;;5059909;28;20028;-70
2023/01/23 12:24:56;;;;;;;12.32;5.20;;;10.30;99.90;;;;;;5063339;28;20037;-72
2023/01/23 12:27:27;;;;;;;11.65;5.07;;;11.00;99.90;;;;;;5070362;28;20033;-69
2023/01/23 12:30:24;;;;;;;13.23;5.93;;;11.50;99.90;;;;;;5067256;28;20021;-73
2023/01/23 12:33:18;;;;;;;10.25;4.80;;;11.80;99.90;;;;;;5061095;28;20029;-72
2023/01/23 12:36:27;;;;;;;7.88;3.63;;;12.10;99.90;;;;;;5057329;28;20035;-71
2023/01/23 12:39:01;;;;;;;8.50;4.38;;;12.30;99.90;;;;;;5060210;28;20024;-69
2023/01/23 12:41:38;;;;;;;12.57;4.63;;;12.10;99.70;;;;;;5071712;28;20020;-69
2023/01/23 12:44:13;;;;;;;10.48;4.78;;;12.00;99.90;;;;;;5067057;28;20036;-70
2023/01/23 12:46:50;;;;;;;10.60;4.57;;;11.90;99.90;;;;;;5066524;28;20596;-71
2023/01/23 12:49:42;;;;;;;11.55;5.22;;;11.60;99.90;;;;;;5061236;28;20504;-71
2023/01/23 12:52:24;;;;;;;12.02;4.78;;;11.30;99.90;;;;;;5065776;28;20040;-71
2023/01/23 12:55:00;;;;;;;11.30;5.07;;;11.10;99.90;;;;;;5066727;28;20041;-72
2023/01/23 12:57:38;;;;;;;12.63;4.80;;;10.90;99.90;;;;;;5056900;28;20029;-70
2023/01/23 13:00:30;;;;;;;12.15;5.35;;;10.60;99.90;;;;;;5067063;28;20095;-69